KMZG

Mustang Island A85a

Mustang Island A85a, Texas, USA
METAR KMZG 190655Z AUTO 19013G22KT 10SM BKN027 OVC032 16/11 A3028 RMK A01
Observed Flight Rules
Jan-19 @ 06:55 UTC (27 minutes ago) Marginal Visual Flight Rules
Wind Visibility Clouds
190° at 13 knots
 Gusting to 22 knots
10 miles
  • Broken at 2,700' AGL
  • Overcast at 3,200' AGL
Temperatures Readings
Current 16°C / 61°F
Dewpoint 11°C / 52°F
Humidity 72%
Altimeter 30.28" Hg
Pressure 1025 hPa
Elevation 29
METAR KMZG 190655Z AUTO 19013G22KT 10SM BKN027 OVC032 16/11 A3028 RMK A01
Observed Flight Rules
Jan-19 @ 06:55 UTC
(27 minutes ago)
MVFR
Wind Visibility
190° at 13 knots
 Gusting to 22 knots
10 miles
Clouds
  • Broken at 2,700' AGL
  • Overcast at 3,200' AGL
Temperature Dewpoint
16°C / 61°F 11°C / 52°F
Humidity Altimeter Pressure
72% 30.28" Hg 1025 hPa